createdAt,value
2023-03-27T00:00:27.540Z,8.68
2023-03-27T00:02:57.714Z,8.65
2023-03-27T00:05:27.934Z,8.62
2023-03-27T00:07:56.002Z,8.60
2023-03-27T00:10:24.831Z,8.58
2023-03-27T00:12:53.333Z,8.54
2023-03-27T00:15:22.131Z,8.52
2023-03-27T00:17:51.840Z,8.49
2023-03-27T00:20:30.304Z,8.45
2023-03-27T00:23:02.641Z,8.44
2023-03-27T00:25:30.839Z,8.43
2023-03-27T00:28:09.141Z,8.41
2023-03-27T00:30:42.358Z,8.40
2023-03-27T00:33:13.651Z,8.39
2023-03-27T00:35:46.046Z,8.36
2023-03-27T00:38:16.422Z,8.33
2023-03-27T00:40:45.559Z,8.30
2023-03-27T00:43:20.787Z,8.29
2023-03-27T00:45:51.052Z,8.27
2023-03-27T00:48:20.411Z,8.25
2023-03-27T00:50:48.438Z,8.24
2023-03-27T00:53:18.249Z,8.22
2023-03-27T00:55:48.848Z,8.20
2023-03-27T00:58:20.215Z,8.17
2023-03-27T01:00:49.937Z,8.15
2023-03-27T01:03:20.231Z,8.12
2023-03-27T01:05:48.942Z,8.08
2023-03-27T01:08:17.761Z,8.06
2023-03-27T01:10:59.585Z,8.04
2023-03-27T01:14:01.516Z,8.02
2023-03-27T01:16:42.201Z,8.00
2023-03-27T01:19:26.561Z,7.96
2023-03-27T01:22:13.896Z,7.93
2023-03-27T01:25:04.082Z,7.91
2023-03-27T01:27:38.126Z,7.90
2023-03-27T01:30:42.853Z,7.90
2023-03-27T01:33:12.430Z,7.89
2023-03-27T01:35:55.931Z,7.88
2023-03-27T01:38:58.406Z,7.86
2023-03-27T01:41:30.324Z,7.84
2023-03-27T01:44:00.893Z,7.83
2023-03-27T01:46:35.964Z,7.81
2023-03-27T01:49:24.576Z,7.80
2023-03-27T01:52:00.265Z,7.78
2023-03-27T01:54:32.892Z,7.76
2023-03-27T01:57:08.465Z,7.74
2023-03-27T01:59:41.178Z,7.72
2023-03-27T02:02:14.835Z,7.71
2023-03-27T02:04:52.582Z,7.69
2023-03-27T02:07:28.459Z,7.67
2023-03-27T02:09:58.917Z,7.65
2023-03-27T02:12:38.070Z,7.64
2023-03-27T02:15:22.576Z,7.64
2023-03-27T02:17:57.337Z,7.63
2023-03-27T02:20:25.587Z,7.61
2023-03-27T02:23:01.028Z,7.60
2023-03-27T02:25:35.232Z,7.58
2023-03-27T02:28:12.952Z,7.57
2023-03-27T02:31:33.251Z,7.56
2023-03-27T02:34:15.398Z,7.55
2023-03-27T02:36:46.323Z,7.54
2023-03-27T02:39:20.577Z,7.53
2023-03-27T02:42:00.371Z,7.51
2023-03-27T02:44:46.464Z,7.51
2023-03-27T02:47:17.014Z,7.47
2023-03-27T02:49:52.933Z,7.44
2023-03-27T02:52:29.225Z,7.42
2023-03-27T02:55:06.235Z,7.39
2023-03-27T02:57:38.899Z,7.39
2023-03-27T03:00:28.138Z,7.38
2023-03-27T03:03:28.063Z,7.38
2023-03-27T03:06:11.497Z,7.37
2023-03-27T03:08:41.254Z,7.36
2023-03-27T03:11:12.032Z,7.31
2023-03-27T03:13:43.238Z,7.28
2023-03-27T03:16:11.661Z,7.25
2023-03-27T03:18:41.330Z,7.24
2023-03-27T03:21:12.076Z,7.22
2023-03-27T03:23:41.360Z,7.20
2023-03-27T03:26:32.395Z,7.19
2023-03-27T03:29:02.384Z,7.17
2023-03-27T03:31:43.284Z,7.16
2023-03-27T03:34:16.935Z,7.18
2023-03-27T03:36:49.822Z,7.17
2023-03-27T03:39:25.086Z,7.17
2023-03-27T03:41:53.948Z,7.19
2023-03-27T03:44:22.061Z,7.22
2023-03-27T03:46:50.417Z,7.26
2023-03-27T03:49:22.080Z,7.30
2023-03-27T03:52:04.384Z,7.33
2023-03-27T03:54:34.125Z,7.36
2023-03-27T03:57:03.510Z,7.39
2023-03-27T03:59:33.098Z,7.40
2023-03-27T04:02:31.323Z,7.43
2023-03-27T04:05:08.624Z,7.45
2023-03-27T04:07:40.231Z,7.47
2023-03-27T04:10:23.133Z,7.49
2023-03-27T04:12:52.767Z,7.50
2023-03-27T04:15:28.439Z,7.53
2023-03-27T04:18:15.413Z,7.54
2023-03-27T04:20:50.141Z,7.58
2023-03-27T04:23:19.832Z,7.59
2023-03-27T04:25:48.566Z,7.59
2023-03-27T04:28:21.611Z,7.61
2023-03-27T04:30:58.354Z,7.63
2023-03-27T04:33:53.278Z,7.65
2023-03-27T04:36:37.700Z,7.67
2023-03-27T04:39:11.415Z,7.68
2023-03-27T04:41:54.045Z,7.69
2023-03-27T04:44:22.312Z,7.72
2023-03-27T04:46:50.417Z,7.73
2023-03-27T04:49:20.544Z,7.75
2023-03-27T04:52:02.344Z,7.77
2023-03-27T04:54:33.563Z,7.79
2023-03-27T04:57:03.410Z,7.81
2023-03-27T04:59:34.250Z,7.82
2023-03-27T05:02:23.354Z,7.86
2023-03-27T05:05:05.411Z,7.91
2023-03-27T05:07:37.097Z,7.98
2023-03-27T05:10:06.414Z,8.03
2023-03-27T05:12:35.050Z,8.10
2023-03-27T05:15:07.500Z,8.18
2023-03-27T05:17:41.908Z,8.26
2023-03-27T05:20:19.283Z,8.35
2023-03-27T05:22:49.748Z,8.47
2023-03-27T05:25:26.752Z,8.58
2023-03-27T05:27:55.949Z,8.69
2023-03-27T05:30:27.368Z,8.79
2023-03-27T05:33:14.059Z,8.86
2023-03-27T05:35:46.308Z,8.92
2023-03-27T05:38:15.752Z,8.99
2023-03-27T05:41:04.468Z,9.08
2023-03-27T05:43:35.933Z,9.15
2023-03-27T05:46:04.575Z,9.23
2023-03-27T05:48:33.758Z,9.31
2023-03-27T05:51:03.229Z,9.40
2023-03-27T05:53:32.524Z,9.48
2023-03-27T05:56:12.791Z,9.56
2023-03-27T05:58:51.490Z,9.64
2023-03-27T06:01:21.051Z,9.72
2023-03-27T06:03:55.415Z,9.78
2023-03-27T06:06:35.445Z,9.88
2023-03-27T06:09:05.392Z,10.03
2023-03-27T06:11:34.763Z,10.60
2023-03-27T06:14:04.315Z,11.65
2023-03-27T06:17:04.015Z,13.07
2023-03-27T06:19:46.884Z,14.07
2023-03-27T06:22:15.050Z,14.83
2023-03-27T06:24:45.898Z,15.83
2023-03-27T06:27:15.243Z,17.03
2023-03-27T06:29:43.730Z,18.16
2023-03-27T06:32:12.345Z,19.41
2023-03-27T06:34:46.058Z,20.81
2023-03-27T06:37:53.378Z,22.20
2023-03-27T06:40:24.426Z,23.01
2023-03-27T06:42:54.938Z,23.56
2023-03-27T06:45:41.768Z,23.71
2023-03-27T06:48:36.860Z,23.53
2023-03-27T06:51:06.964Z,23.21
2023-03-27T06:53:38.098Z,23.04
2023-03-27T06:56:08.174Z,23.00
2023-03-27T06:59:01.571Z,23.14
2023-03-27T07:01:30.328Z,23.45
2023-03-27T07:04:17.689Z,23.91
2023-03-27T07:07:05.123Z,24.27
2023-03-27T07:09:39.449Z,24.25
2023-03-27T07:12:14.300Z,24.22
2023-03-27T07:14:44.438Z,24.46
2023-03-27T07:17:13.164Z,24.68
2023-03-27T07:19:55.770Z,24.08
2023-03-27T07:22:28.003Z,23.73
2023-03-27T07:24:57.137Z,24.13
2023-03-27T07:27:26.360Z,24.92
2023-03-27T07:30:01.597Z,25.63
2023-03-27T07:32:38.198Z,25.41
2023-03-27T07:35:09.324Z,24.52
2023-03-27T07:38:03.836Z,23.11
2023-03-27T07:40:40.454Z,21.29
2023-03-27T07:43:27.495Z,20.12
2023-03-27T07:45:56.338Z,19.48
2023-03-27T07:48:27.874Z,18.89
2023-03-27T07:51:10.769Z,18.40
2023-03-27T07:53:41.909Z,18.01
2023-03-27T07:56:22.139Z,17.65
2023-03-27T07:58:53.274Z,16.99
2023-03-27T08:01:22.612Z,16.68
2023-03-27T08:03:52.910Z,16.54
2023-03-27T08:06:22.936Z,16.44
2023-03-27T08:08:51.842Z,16.39
2023-03-27T08:11:30.247Z,16.34
2023-03-27T08:13:59.194Z,16.26
2023-03-27T08:16:30.161Z,16.21
2023-03-27T08:19:01.514Z,16.15
2023-03-27T08:21:33.561Z,16.03
2023-03-27T08:24:03.573Z,15.82
2023-03-27T08:26:35.359Z,15.50
2023-03-27T08:29:09.092Z,15.38
2023-03-27T08:31:38.149Z,15.32
2023-03-27T08:34:06.862Z,15.13
2023-03-27T08:36:45.376Z,14.96
2023-03-27T08:39:14.039Z,14.80
2023-03-27T08:42:17.803Z,14.57
2023-03-27T08:44:55.036Z,14.55
2023-03-27T08:47:41.947Z,14.60
2023-03-27T08:50:33.130Z,14.66
2023-03-27T08:53:23.711Z,14.61
2023-03-27T08:55:52.557Z,14.47
2023-03-27T08:58:38.181Z,14.42
2023-03-27T09:02:16.477Z,14.49
2023-03-27T09:04:54.154Z,14.54
2023-03-27T09:07:34.455Z,14.63
2023-03-27T09:10:51.277Z,14.77
2023-03-27T09:13:44.540Z,14.93
2023-03-27T09:16:18.006Z,15.02
2023-03-27T09:19:06.383Z,15.00
2023-03-27T09:21:44.764Z,14.91
2023-03-27T09:24:27.429Z,14.96
2023-03-27T09:27:32.733Z,15.01
2023-03-27T09:30:37.825Z,15.00
2023-03-27T09:33:24.410Z,14.85
2023-03-27T09:35:53.070Z,14.76
2023-03-27T09:38:43.165Z,14.77
2023-03-27T09:41:17.363Z,14.91
2023-03-27T09:43:49.930Z,15.10
2023-03-27T09:46:20.320Z,15.28
2023-03-27T09:49:06.189Z,15.42
2023-03-27T09:51:38.030Z,15.49
2023-03-27T09:54:12.938Z,15.48
2023-03-27T09:56:50.188Z,15.39
2023-03-27T09:59:26.679Z,15.41
2023-03-27T10:01:57.544Z,15.61
2023-03-27T10:04:27.760Z,15.73
2023-03-27T10:07:08.462Z,15.84
2023-03-27T10:10:07.072Z,15.98
2023-03-27T10:12:39.990Z,16.08
2023-03-27T10:15:35.046Z,16.10
2023-03-27T10:18:07.505Z,16.10
2023-03-27T10:20:41.514Z,16.13
2023-03-27T10:23:25.173Z,16.16
2023-03-27T10:25:56.485Z,16.21
2023-03-27T10:28:29.059Z,16.26
2023-03-27T10:31:29.880Z,16.32
2023-03-27T10:34:28.676Z,16.26
2023-03-27T10:37:26.836Z,16.17
2023-03-27T10:40:02.378Z,15.99
2023-03-27T10:42:38.187Z,15.91
2023-03-27T10:45:15.376Z,15.88
2023-03-27T10:47:47.477Z,15.83
2023-03-27T10:50:26.874Z,15.84
2023-03-27T10:53:06.128Z,15.97
2023-03-27T10:55:52.092Z,16.19
2023-03-27T10:58:22.136Z,16.28
2023-03-27T11:01:43.076Z,16.33
2023-03-27T11:04:24.881Z,16.48
2023-03-27T11:06:57.349Z,16.50
2023-03-27T11:09:37.993Z,16.49
2023-03-27T11:12:12.753Z,16.50
2023-03-27T11:14:52.672Z,16.51
2023-03-27T11:17:29.078Z,16.57
2023-03-27T11:20:44.928Z,16.50
2023-03-27T11:23:34.323Z,16.44
2023-03-27T11:27:01.444Z,16.56
2023-03-27T11:29:32.403Z,16.72
2023-03-27T11:32:11.424Z,16.86
2023-03-27T11:34:57.838Z,16.87
2023-03-27T11:37:53.447Z,16.74
2023-03-27T11:40:46.298Z,16.72
2023-03-27T11:43:15.576Z,16.75
2023-03-27T11:46:22.809Z,16.74
2023-03-27T11:49:30.136Z,16.70
2023-03-27T11:52:05.618Z,16.63
2023-03-27T11:55:22.496Z,16.63
2023-03-27T11:58:10.252Z,16.55
2023-03-27T12:01:08.194Z,16.48
2023-03-27T12:03:59.328Z,16.51
2023-03-27T12:06:51.234Z,16.49
2023-03-27T12:09:34.868Z,16.45
2023-03-27T12:13:03.365Z,16.36
2023-03-27T12:15:57.399Z,16.25
2023-03-27T12:18:41.391Z,16.27
2023-03-27T12:21:36.121Z,16.28
2023-03-27T12:24:19.847Z,16.39
2023-03-27T12:27:26.196Z,16.55
2023-03-27T12:30:44.306Z,16.83
2023-03-27T12:33:24.137Z,17.02
2023-03-27T12:35:54.265Z,17.15
2023-03-27T12:38:29.047Z,17.21
2023-03-27T12:41:03.121Z,17.11
2023-03-27T12:43:45.097Z,16.99
2023-03-27T12:46:24.875Z,16.77
2023-03-27T12:48:58.669Z,16.54
2023-03-27T12:51:52.000Z,16.39
2023-03-27T12:54:38.675Z,16.33
2023-03-27T12:57:26.558Z,16.30
2023-03-27T13:00:07.562Z,16.23
2023-03-27T13:03:19.643Z,16.17
2023-03-27T13:06:06.630Z,16.16
2023-03-27T13:09:09.125Z,16.17
2023-03-27T13:12:02.815Z,16.16
2023-03-27T13:15:07.109Z,16.15
2023-03-27T13:17:58.997Z,16.18
2023-03-27T13:20:51.149Z,16.20
2023-03-27T13:23:52.727Z,16.25
2023-03-27T13:26:31.910Z,16.24
2023-03-27T13:29:01.594Z,16.20
2023-03-27T13:31:46.619Z,16.15
2023-03-27T13:34:28.585Z,16.15
2023-03-27T13:37:14.129Z,16.13
2023-03-27T13:39:59.441Z,16.07
2023-03-27T13:42:30.752Z,16.00
2023-03-27T13:45:05.853Z,15.93
2023-03-27T13:48:20.472Z,15.88
2023-03-27T13:51:14.484Z,15.88
2023-03-27T13:54:20.970Z,15.86
2023-03-27T13:57:31.487Z,15.86
2023-03-27T14:00:24.475Z,15.86
2023-03-27T14:03:21.896Z,15.84
2023-03-27T14:06:12.006Z,15.81
2023-03-27T14:09:26.691Z,15.79
2023-03-27T14:12:29.627Z,15.80
2023-03-27T14:15:30.155Z,15.78
2023-03-27T14:18:58.401Z,15.77
2023-03-27T14:21:38.728Z,15.76
2023-03-27T14:24:34.781Z,15.73
2023-03-27T14:27:16.376Z,15.70
2023-03-27T14:29:45.248Z,15.71
2023-03-27T14:32:17.552Z,15.75
2023-03-27T14:34:55.152Z,15.73
2023-03-27T14:37:39.049Z,15.67
2023-03-27T14:40:42.336Z,15.56
2023-03-27T14:43:11.886Z,15.49
2023-03-27T14:45:43.401Z,15.43
2023-03-27T14:48:27.134Z,15.40
2023-03-27T14:50:58.163Z,15.38
2023-03-27T14:53:29.015Z,15.35
2023-03-27T14:56:31.580Z,15.31
2023-03-27T14:59:28.632Z,15.24
2023-03-27T15:02:03.678Z,15.21
2023-03-27T15:04:32.744Z,15.21
2023-03-27T15:07:14.491Z,15.21
2023-03-27T15:10:03.647Z,15.18
2023-03-27T15:12:51.023Z,15.14
2023-03-27T15:15:27.327Z,15.10
2023-03-27T15:17:56.158Z,15.07
2023-03-27T15:20:29.829Z,15.01
2023-03-27T15:23:07.177Z,14.96
2023-03-27T15:25:43.070Z,14.90
2023-03-27T15:28:26.119Z,14.85
2023-03-27T15:30:56.869Z,14.80
2023-03-27T15:33:35.319Z,14.75
2023-03-27T15:36:06.526Z,14.71
2023-03-27T15:38:35.660Z,14.67
2023-03-27T15:41:16.530Z,14.64
2023-03-27T15:43:44.702Z,14.61
2023-03-27T15:46:16.040Z,14.57
2023-03-27T15:48:45.971Z,14.54
2023-03-27T15:51:28.624Z,14.51
2023-03-27T15:53:57.528Z,14.49
2023-03-27T15:56:29.256Z,14.46
2023-03-27T15:59:01.924Z,14.45
2023-03-27T16:01:41.285Z,14.41
2023-03-27T16:04:13.142Z,14.40
2023-03-27T16:06:44.487Z,14.38
2023-03-27T16:09:38.900Z,14.36
2023-03-27T16:12:09.816Z,14.34
2023-03-27T16:14:42.765Z,14.30
2023-03-27T16:17:20.707Z,14.28
2023-03-27T16:19:54.721Z,14.26
2023-03-27T16:22:33.238Z,14.24
2023-03-27T16:25:01.979Z,14.23
2023-03-27T16:27:46.017Z,14.22
2023-03-27T16:30:23.558Z,14.22
2023-03-27T16:32:53.713Z,14.22
2023-03-27T16:35:22.991Z,14.23
2023-03-27T16:37:51.431Z,14.25
2023-03-27T16:40:19.683Z,14.27
2023-03-27T16:42:47.878Z,14.26
2023-03-27T16:45:16.214Z,14.26
2023-03-27T16:47:50.719Z,14.26
2023-03-27T16:50:22.697Z,14.26
2023-03-27T16:52:51.665Z,14.27
2023-03-27T16:55:20.046Z,14.27
2023-03-27T16:57:48.540Z,14.29
2023-03-27T17:00:16.940Z,14.31
2023-03-27T17:02:47.267Z,14.30
2023-03-27T17:05:15.839Z,14.28
2023-03-27T17:07:46.619Z,14.26
2023-03-27T17:10:18.481Z,14.24
2023-03-27T17:12:47.397Z,14.23
2023-03-27T17:15:16.813Z,14.21
2023-03-27T17:17:50.250Z,14.19
2023-03-27T17:20:18.867Z,14.17
2023-03-27T17:22:46.968Z,14.14
2023-03-27T17:25:16.051Z,14.10
2023-03-27T17:27:44.344Z,14.07
2023-03-27T17:30:16.025Z,14.05
2023-03-27T17:32:48.781Z,14.02
2023-03-27T17:35:17.249Z,14.01
2023-03-27T17:37:46.653Z,14.02
2023-03-27T17:40:15.470Z,14.00
2023-03-27T17:42:43.937Z,13.98
2023-03-27T17:45:21.543Z,13.96
2023-03-27T17:47:51.060Z,13.91
2023-03-27T17:50:19.399Z,13.86
2023-03-27T17:52:47.780Z,13.81
2023-03-27T17:55:16.447Z,13.76
2023-03-27T17:57:47.450Z,13.75
2023-03-27T18:00:19.816Z,13.74
2023-03-27T18:02:48.911Z,13.74
2023-03-27T18:05:17.423Z,13.74
2023-03-27T18:07:45.543Z,13.74
2023-03-27T18:10:19.288Z,13.72
2023-03-27T18:12:47.614Z,13.71
2023-03-27T18:15:16.538Z,13.67
2023-03-27T18:17:47.178Z,13.63
2023-03-27T18:20:15.658Z,13.61
2023-03-27T18:22:43.909Z,13.58
2023-03-27T18:25:12.043Z,13.57
2023-03-27T18:27:40.558Z,13.53
2023-03-27T18:30:11.729Z,13.54
2023-03-27T18:32:41.601Z,13.53
2023-03-27T18:35:14.054Z,13.57
2023-03-27T18:37:42.729Z,13.62
2023-03-27T18:40:12.221Z,13.66
2023-03-27T18:43:00.230Z,13.69
2023-03-27T18:45:28.512Z,13.70
2023-03-27T18:47:56.663Z,13.69
2023-03-27T18:50:26.109Z,13.69
2023-03-27T18:52:54.391Z,13.66
2023-03-27T18:55:22.687Z,13.65
2023-03-27T18:57:51.156Z,13.64
2023-03-27T19:00:21.097Z,13.60
2023-03-27T19:02:57.100Z,13.54
2023-03-27T19:05:25.840Z,13.41
2023-03-27T19:07:57.774Z,13.19
2023-03-27T19:10:26.835Z,12.92
2023-03-27T19:13:16.360Z,12.67
2023-03-27T19:16:14.339Z,12.55
2023-03-27T19:19:13.503Z,12.60
2023-03-27T19:21:54.070Z,12.65
2023-03-27T19:24:33.294Z,12.71
2023-03-27T19:27:03.043Z,12.74
2023-03-27T19:29:31.426Z,12.79
2023-03-27T19:31:59.770Z,12.84
2023-03-27T19:34:40.121Z,12.86
2023-03-27T19:37:10.990Z,12.87
2023-03-27T19:39:39.840Z,12.87
2023-03-27T19:42:08.121Z,12.87
2023-03-27T19:44:40.092Z,12.86
2023-03-27T19:47:09.783Z,12.86
2023-03-27T19:49:38.418Z,12.85
2023-03-27T19:52:20.002Z,12.82
2023-03-27T19:54:54.129Z,12.80
2023-03-27T19:57:25.604Z,12.78
2023-03-27T19:59:53.647Z,12.77
2023-03-27T20:02:21.926Z,12.76
2023-03-27T20:04:50.779Z,12.75
2023-03-27T20:07:19.725Z,12.73
2023-03-27T20:09:48.955Z,12.73
2023-03-27T20:12:19.907Z,12.72
2023-03-27T20:15:02.342Z,12.73
2023-03-27T20:17:44.937Z,12.74
2023-03-27T20:20:13.129Z,12.75
2023-03-27T20:22:56.427Z,12.77
2023-03-27T20:25:28.233Z,12.78
2023-03-27T20:27:57.160Z,12.79
2023-03-27T20:30:25.887Z,12.79
2023-03-27T20:32:54.552Z,12.80
2023-03-27T20:35:24.828Z,12.80
2023-03-27T20:37:57.919Z,12.80
2023-03-27T20:40:30.289Z,12.80
2023-03-27T20:43:03.692Z,12.80
2023-03-27T20:45:32.590Z,12.81
2023-03-27T20:48:03.473Z,12.82
2023-03-27T20:50:35.609Z,12.83
2023-03-27T20:53:04.720Z,12.82
2023-03-27T20:55:39.331Z,12.82
2023-03-27T20:58:10.782Z,12.80
2023-03-27T21:00:39.340Z,12.75
2023-03-27T21:03:08.670Z,12.72
2023-03-27T21:05:38.409Z,12.71
2023-03-27T21:08:08.353Z,12.70
2023-03-27T21:10:41.741Z,12.68
2023-03-27T21:13:11.658Z,12.68
2023-03-27T21:15:42.479Z,12.68
2023-03-27T21:18:10.975Z,12.67
2023-03-27T21:20:39.103Z,12.66
2023-03-27T21:23:10.658Z,12.64
2023-03-27T21:25:39.862Z,12.65
2023-03-27T21:28:08.079Z,12.66
2023-03-27T21:30:46.823Z,12.65
2023-03-27T21:33:16.541Z,12.65
2023-03-27T21:35:47.529Z,12.65
2023-03-27T21:38:17.620Z,12.65
2023-03-27T21:40:47.463Z,12.66
2023-03-27T21:43:15.999Z,12.67
2023-03-27T21:45:44.591Z,12.68
2023-03-27T21:48:19.730Z,12.70
2023-03-27T21:50:49.138Z,12.70
2023-03-27T21:53:17.526Z,12.70
2023-03-27T21:55:49.294Z,12.69
2023-03-27T21:58:17.373Z,12.69
2023-03-27T22:00:50.752Z,12.67
2023-03-27T22:03:20.884Z,12.65
2023-03-27T22:06:00.954Z,12.64
2023-03-27T22:08:38.347Z,12.62
2023-03-27T22:11:06.703Z,12.60
2023-03-27T22:13:36.387Z,12.59
2023-03-27T22:16:10.975Z,12.57
2023-03-27T22:18:39.676Z,12.57
2023-03-27T22:21:17.827Z,12.57
2023-03-27T22:23:46.329Z,12.57
2023-03-27T22:26:14.916Z,12.58
2023-03-27T22:28:50.057Z,12.58
2023-03-27T22:31:20.463Z,12.56
2023-03-27T22:33:48.936Z,12.53
2023-03-27T22:36:17.358Z,12.51
2023-03-27T22:38:46.616Z,12.49
2023-03-27T22:41:20.377Z,12.47
2023-03-27T22:43:49.883Z,12.45
2023-03-27T22:46:19.867Z,12.46
2023-03-27T22:48:48.420Z,12.46
2023-03-27T22:51:16.556Z,12.45
2023-03-27T22:53:44.915Z,12.44
2023-03-27T22:56:13.095Z,12.42
2023-03-27T22:58:41.242Z,12.41
2023-03-27T23:01:09.312Z,12.40
2023-03-27T23:03:38.389Z,12.40
2023-03-27T23:07:04.165Z,12.37
2023-03-27T23:09:56.494Z,12.36
2023-03-27T23:12:24.904Z,12.36
2023-03-27T23:14:54.695Z,12.35
2023-03-27T23:17:23.380Z,12.36
2023-03-27T23:19:58.362Z,12.35
2023-03-27T23:22:27.784Z,12.34
2023-03-27T23:24:56.536Z,12.33
2023-03-27T23:27:24.801Z,12.32
2023-03-27T23:29:53.086Z,12.31
2023-03-27T23:32:28.505Z,12.29
2023-03-27T23:34:56.809Z,12.25
2023-03-27T23:38:21.832Z,12.23
2023-03-27T23:41:10.329Z,12.21
2023-03-27T23:43:38.503Z,12.19
2023-03-27T23:46:11.561Z,12.18
2023-03-27T23:48:41.411Z,12.16
2023-03-27T23:51:09.927Z,12.14
2023-03-27T23:53:39.101Z,12.13
2023-03-27T23:56:07.818Z,12.11
2023-03-27T23:58:37.507Z,12.11
